sensor_id;sensor_type;location;lat;lon;timestamp;temperature;humidity
16289;DHT22;26089;43.538;5.250;2022-12-10T00:00:11;9.90;99.90
16289;DHT22;26089;43.538;5.250;2022-12-10T00:02:39;9.90;99.90
16289;DHT22;26089;43.538;5.250;2022-12-10T00:05:07;9.80;99.90
16289;DHT22;26089;43.538;5.250;2022-12-10T00:07:34;9.80;99.90
16289;DHT22;26089;43.538;5.250;2022-12-10T00:10:01;9.90;99.90
16289;DHT22;26089;43.538;5.250;2022-12-10T00:12:28;10.30;99.90
16289;DHT22;26089;43.538;5.250;2022-12-10T00:14:55;9.80;99.90
16289;DHT22;26089;43.538;5.250;2022-12-10T00:17:24;9.80;99.90
16289;DHT22;26089;43.538;5.250;2022-12-10T00:19:51;9.80;99.90
16289;DHT22;26089;43.538;5.250;2022-12-10T00:22:18;9.80;99.90
16289;DHT22;26089;43.538;5.250;2022-12-10T00:24:46;9.80;99.90
16289;DHT22;26089;43.538;5.250;2022-12-10T00:27:13;9.80;99.90
16289;DHT22;26089;43.538;5.250;2022-12-10T00:29:40;9.80;99.90
16289;DHT22;26089;43.538;5.250;2022-12-10T00:32:07;9.80;99.90
16289;DHT22;26089;43.538;5.250;2022-12-10T00:34:36;9.80;99.90
16289;DHT22;26089;43.538;5.250;2022-12-10T00:37:03;9.80;99.90
16289;DHT22;26089;43.538;5.250;2022-12-10T00:39:30;9.80;99.90
16289;DHT22;26089;43.538;5.250;2022-12-10T00:41:57;9.80;99.90
16289;DHT22;26089;43.538;5.250;2022-12-10T00:44:24;9.80;99.90
16289;DHT22;26089;43.538;5.250;2022-12-10T00:46:51;9.70;99.90
16289;DHT22;26089;43.538;5.250;2022-12-10T00:49:18;9.80;99.90
16289;DHT22;26089;43.538;5.250;2022-12-10T00:51:50;9.70;99.90
16289;DHT22;26089;43.538;5.250;2022-12-10T00:54:17;9.80;99.90
16289;DHT22;26089;43.538;5.250;2022-12-10T00:56:44;9.70;99.90
16289;DHT22;26089;43.538;5.250;2022-12-10T00:59:12;9.80;99.90
16289;DHT22;26089;43.538;5.250;2022-12-10T01:01:41;9.70;99.90
16289;DHT22;26089;43.538;5.250;2022-12-10T01:04:10;9.70;99.90
16289;DHT22;26089;43.538;5.250;2022-12-10T01:06:41;9.80;99.90
16289;DHT22;26089;43.538;5.250;2022-12-10T01:09:12;9.80;99.90
16289;DHT22;26089;43.538;5.250;2022-12-10T01:11:41;9.70;99.90
16289;DHT22;26089;43.538;5.250;2022-12-10T01:14:10;9.70;99.90
16289;DHT22;26089;43.538;5.250;2022-12-10T01:16:37;9.70;99.90
16289;DHT22;26089;43.538;5.250;2022-12-10T01:19:05;9.70;99.90
16289;DHT22;26089;43.538;5.250;2022-12-10T01:21:32;9.60;99.90
16289;DHT22;26089;43.538;5.250;2022-12-10T01:23:59;9.50;99.90
16289;DHT22;26089;43.538;5.250;2022-12-10T01:26:30;9.40;99.90
16289;DHT22;26089;43.538;5.250;2022-12-10T01:28:58;9.30;99.90
16289;DHT22;26089;43.538;5.250;2022-12-10T01:31:28;9.20;99.90
16289;DHT22;26089;43.538;5.250;2022-12-10T01:33:56;9.10;99.90
16289;DHT22;26089;43.538;5.250;2022-12-10T01:36:26;9.10;99.90
16289;DHT22;26089;43.538;5.250;2022-12-10T01:38:53;9.10;99.90
16289;DHT22;26089;43.538;5.250;2022-12-10T01:41:23;9.00;99.90
16289;DHT22;26089;43.538;5.250;2022-12-10T01:43:54;9.00;99.90
16289;DHT22;26089;43.538;5.250;2022-12-10T01:46:22;8.90;99.90
16289;DHT22;26089;43.538;5.250;2022-12-10T01:48:50;8.90;99.90
16289;DHT22;26089;43.538;5.250;2022-12-10T01:51:18;9.30;99.90
16289;DHT22;26089;43.538;5.250;2022-12-10T01:53:46;8.80;99.90
16289;DHT22;26089;43.538;5.250;2022-12-10T01:56:15;8.80;99.90
16289;DHT22;26089;43.538;5.250;2022-12-10T01:58:43;8.80;99.90
16289;DHT22;26089;43.538;5.250;2022-12-10T02:01:15;8.70;99.90
16289;DHT22;26089;43.538;5.250;2022-12-10T02:03:52;8.70;99.90
16289;DHT22;26089;43.538;5.250;2022-12-10T02:06:31;8.70;99.90
16289;DHT22;26089;43.538;5.250;2022-12-10T02:09:08;8.70;99.90
16289;DHT22;26089;43.538;5.250;2022-12-10T02:11:42;9.50;99.90
16289;DHT22;26089;43.538;5.250;2022-12-10T02:14:16;8.70;99.90
16289;DHT22;26089;43.538;5.250;2022-12-10T02:16:48;8.70;99.90
16289;DHT22;26089;43.538;5.250;2022-12-10T02:19:23;8.70;99.90
16289;DHT22;26089;43.538;5.250;2022-12-10T02:21:53;8.70;99.90
16289;DHT22;26089;43.538;5.250;2022-12-10T02:24:24;8.90;99.90
16289;DHT22;26089;43.538;5.250;2022-12-10T02:26:58;8.70;99.90
16289;DHT22;26089;43.538;5.250;2022-12-10T02:29:30;8.70;99.90
16289;DHT22;26089;43.538;5.250;2022-12-10T02:32:02;8.70;99.90
16289;DHT22;26089;43.538;5.250;2022-12-10T02:34:34;8.60;99.90
16289;DHT22;26089;43.538;5.250;2022-12-10T02:37:04;8.60;99.90
16289;DHT22;26089;43.538;5.250;2022-12-10T02:39:36;8.60;99.90
16289;DHT22;26089;43.538;5.250;2022-12-10T02:42:06;8.50;99.90
16289;DHT22;26089;43.538;5.250;2022-12-10T02:44:36;8.50;99.90
16289;DHT22;26089;43.538;5.250;2022-12-10T02:47:05;8.30;99.90
16289;DHT22;26089;43.538;5.250;2022-12-10T02:49:34;8.60;99.90
16289;DHT22;26089;43.538;5.250;2022-12-10T02:52:07;8.60;99.90
16289;DHT22;26089;43.538;5.250;2022-12-10T02:54:38;8.60;99.90
16289;DHT22;26089;43.538;5.250;2022-12-10T03:00:17;8.60;99.90
16289;DHT22;26089;43.538;5.250;2022-12-10T03:03:10;8.50;99.90
16289;DHT22;26089;43.538;5.250;2022-12-10T03:05:43;8.50;99.90
16289;DHT22;26089;43.538;5.250;2022-12-10T03:08:16;8.20;99.90
16289;DHT22;26089;43.538;5.250;2022-12-10T03:10:50;8.50;99.90
16289;DHT22;26089;43.538;5.250;2022-12-10T03:13:21;8.50;99.90
16289;DHT22;26089;43.538;5.250;2022-12-10T03:15:52;8.50;99.90
16289;DHT22;26089;43.538;5.250;2022-12-10T03:18:23;8.50;99.90
16289;DHT22;26089;43.538;5.250;2022-12-10T03:20:53;8.50;99.90
16289;DHT22;26089;43.538;5.250;2022-12-10T03:23:21;8.40;99.90
16289;DHT22;26089;43.538;5.250;2022-12-10T03:25:50;8.40;99.90
16289;DHT22;26089;43.538;5.250;2022-12-10T03:28:19;8.40;99.90
16289;DHT22;26089;43.538;5.250;2022-12-10T03:30:50;8.40;99.90
16289;DHT22;26089;43.538;5.250;2022-12-10T03:33:19;8.30;99.90
16289;DHT22;26089;43.538;5.250;2022-12-10T03:35:46;8.30;99.90
16289;DHT22;26089;43.538;5.250;2022-12-10T03:38:14;8.30;99.90
16289;DHT22;26089;43.538;5.250;2022-12-10T03:40:42;8.30;99.90
16289;DHT22;26089;43.538;5.250;2022-12-10T03:43:12;7.50;99.90
16289;DHT22;26089;43.538;5.250;2022-12-10T03:45:40;8.40;99.90
16289;DHT22;26089;43.538;5.250;2022-12-10T03:48:08;8.30;99.90
16289;DHT22;26089;43.538;5.250;2022-12-10T03:50:35;8.00;99.90
16289;DHT22;26089;43.538;5.250;2022-12-10T03:53:02;8.20;99.90
16289;DHT22;26089;43.538;5.250;2022-12-10T03:55:29;8.20;99.90
16289;DHT22;26089;43.538;5.250;2022-12-10T03:57:58;7.90;99.90
16289;DHT22;26089;43.538;5.250;2022-12-10T04:00:25;8.20;99.90
16289;DHT22;26089;43.538;5.250;2022-12-10T04:02:52;8.20;99.90
16289;DHT22;26089;43.538;5.250;2022-12-10T04:05:20;8.20;99.90
16289;DHT22;26089;43.538;5.250;2022-12-10T04:07:47;8.20;99.90
16289;DHT22;26089;43.538;5.250;2022-12-10T04:10:14;8.20;99.90
16289;DHT22;26089;43.538;5.250;2022-12-10T04:12:41;8.20;99.90
16289;DHT22;26089;43.538;5.250;2022-12-10T04:15:28;7.90;99.90
16289;DHT22;26089;43.538;5.250;2022-12-10T04:18:13;8.00;99.90
16289;DHT22;26089;43.538;5.250;2022-12-10T04:20:41;8.00;99.90
16289;DHT22;26089;43.538;5.250;2022-12-10T04:23:26;7.90;99.90
16289;DHT22;26089;43.538;5.250;2022-12-10T04:26:11;7.80;99.90
16289;DHT22;26089;43.538;5.250;2022-12-10T04:28:55;7.70;99.90
16289;DHT22;26089;43.538;5.250;2022-12-10T04:31:22;7.60;99.90
16289;DHT22;26089;43.538;5.250;2022-12-10T04:33:49;7.50;99.90
16289;DHT22;26089;43.538;5.250;2022-12-10T04:36:18;7.50;99.90
16289;DHT22;26089;43.538;5.250;2022-12-10T04:38:45;7.50;99.90
16289;DHT22;26089;43.538;5.250;2022-12-10T04:41:12;7.40;99.90
16289;DHT22;26089;43.538;5.250;2022-12-10T04:43:41;7.40;99.90
16289;DHT22;26089;43.538;5.250;2022-12-10T04:46:08;7.50;99.90
16289;DHT22;26089;43.538;5.250;2022-12-10T04:48:35;7.00;99.90
16289;DHT22;26089;43.538;5.250;2022-12-10T04:51:02;7.30;99.90
16289;DHT22;26089;43.538;5.250;2022-12-10T04:53:31;7.30;99.90
16289;DHT22;26089;43.538;5.250;2022-12-10T04:55:58;7.00;99.90
16289;DHT22;26089;43.538;5.250;2022-12-10T04:58:26;7.30;99.90
16289;DHT22;26089;43.538;5.250;2022-12-10T05:01:01;7.10;99.90
16289;DHT22;26089;43.538;5.250;2022-12-10T05:03:28;7.20;99.90
16289;DHT22;26089;43.538;5.250;2022-12-10T05:05:55;7.20;99.90
16289;DHT22;26089;43.538;5.250;2022-12-10T05:08:22;7.10;99.90
16289;DHT22;26089;43.538;5.250;2022-12-10T05:10:51;7.10;99.90
16289;DHT22;26089;43.538;5.250;2022-12-10T05:13:18;7.10;99.90
16289;DHT22;26089;43.538;5.250;2022-12-10T05:15:45;7.10;99.90
16289;DHT22;26089;43.538;5.250;2022-12-10T05:18:12;7.00;99.90
16289;DHT22;26089;43.538;5.250;2022-12-10T05:20:39;6.90;99.90
16289;DHT22;26089;43.538;5.250;2022-12-10T05:23:07;7.00;99.90
16289;DHT22;26089;43.538;5.250;2022-12-10T05:25:59;6.90;99.90
16289;DHT22;26089;43.538;5.250;2022-12-10T05:28:27;7.00;99.90
16289;DHT22;26089;43.538;5.250;2022-12-10T05:30:54;6.90;99.90
16289;DHT22;26089;43.538;5.250;2022-12-10T05:33:22;6.90;99.90
16289;DHT22;26089;43.538;5.250;2022-12-10T05:35:53;7.00;99.90
16289;DHT22;26089;43.538;5.250;2022-12-10T05:38:21;7.00;99.90
16289;DHT22;26089;43.538;5.250;2022-12-10T05:40:48;7.00;99.90
16289;DHT22;26089;43.538;5.250;2022-12-10T05:43:17;7.10;99.90
16289;DHT22;26089;43.538;5.250;2022-12-10T05:45:44;6.90;99.90
16289;DHT22;26089;43.538;5.250;2022-12-10T05:48:13;6.90;99.90
16289;DHT22;26089;43.538;5.250;2022-12-10T05:50:40;6.90;99.90
16289;DHT22;26089;43.538;5.250;2022-12-10T05:53:08;6.90;99.90
16289;DHT22;26089;43.538;5.250;2022-12-10T05:55:35;6.90;99.90
16289;DHT22;26089;43.538;5.250;2022-12-10T05:58:02;6.90;99.90
16289;DHT22;26089;43.538;5.250;2022-12-10T06:00:30;6.80;99.90
16289;DHT22;26089;43.538;5.250;2022-12-10T06:02:57;7.60;99.90
16289;DHT22;26089;43.538;5.250;2022-12-10T06:05:24;6.70;99.90
16289;DHT22;26089;43.538;5.250;2022-12-10T06:07:51;6.60;99.90
16289;DHT22;26089;43.538;5.250;2022-12-10T06:10:18;6.60;99.90
16289;DHT22;26089;43.538;5.250;2022-12-10T06:12:45;6.40;99.90
16289;DHT22;26089;43.538;5.250;2022-12-10T06:15:12;7.00;99.90
16289;DHT22;26089;43.538;5.250;2022-12-10T06:17:41;6.30;99.90
16289;DHT22;26089;43.538;5.250;2022-12-10T06:20:09;6.20;99.90
16289;DHT22;26089;43.538;5.250;2022-12-10T06:22:36;6.20;99.90
16289;DHT22;26089;43.538;5.250;2022-12-10T06:25:04;6.20;99.90
16289;DHT22;26089;43.538;5.250;2022-12-10T06:27:32;6.20;99.90
16289;DHT22;26089;43.538;5.250;2022-12-10T06:29:59;6.10;99.90
16289;DHT22;26089;43.538;5.250;2022-12-10T06:32:26;6.00;99.90
16289;DHT22;26089;43.538;5.250;2022-12-10T06:34:54;6.10;99.90
16289;DHT22;26089;43.538;5.250;2022-12-10T06:37:22;6.20;99.90
16289;DHT22;26089;43.538;5.250;2022-12-10T06:39:50;6.20;99.90
16289;DHT22;26089;43.538;5.250;2022-12-10T06:42:18;6.60;99.90
16289;DHT22;26089;43.538;5.250;2022-12-10T06:44:45;6.50;99.90
16289;DHT22;26089;43.538;5.250;2022-12-10T06:47:12;6.60;99.90
16289;DHT22;26089;43.538;5.250;2022-12-10T06:49:39;5.70;99.90
16289;DHT22;26089;43.538;5.250;2022-12-10T06:52:08;5.60;99.90
16289;DHT22;26089;43.538;5.250;2022-12-10T06:54:35;5.80;99.90
16289;DHT22;26089;43.538;5.250;2022-12-10T06:57:02;5.40;99.90
16289;DHT22;26089;43.538;5.250;2022-12-10T06:59:29;6.30;99.90
16289;DHT22;26089;43.538;5.250;2022-12-10T07:01:56;5.60;99.90
16289;DHT22;26089;43.538;5.250;2022-12-10T07:04:23;5.60;99.90
16289;DHT22;26089;43.538;5.250;2022-12-10T07:06:51;5.00;99.90
16289;DHT22;26089;43.538;5.250;2022-12-10T07:09:19;5.40;99.90
16289;DHT22;26089;43.538;5.250;2022-12-10T07:11:46;5.40;99.90
16289;DHT22;26089;43.538;5.250;2022-12-10T07:14:14;5.30;99.90
16289;DHT22;26089;43.538;5.250;2022-12-10T07:16:42;5.30;99.90
16289;DHT22;26089;43.538;5.250;2022-12-10T07:19:10;5.30;99.90
16289;DHT22;26089;43.538;5.250;2022-12-10T07:21:40;5.30;99.90
16289;DHT22;26089;43.538;5.250;2022-12-10T07:24:10;5.30;99.90
16289;DHT22;26089;43.538;5.250;2022-12-10T07:26:40;5.30;99.90
16289;DHT22;26089;43.538;5.250;2022-12-10T07:29:12;4.20;99.90
16289;DHT22;26089;43.538;5.250;2022-12-10T07:31:39;5.50;99.90
16289;DHT22;26089;43.538;5.250;2022-12-10T07:34:06;5.90;99.90
16289;DHT22;26089;43.538;5.250;2022-12-10T07:36:33;5.40;99.90
16289;DHT22;26089;43.538;5.250;2022-12-10T07:39:00;5.40;99.90
16289;DHT22;26089;43.538;5.250;2022-12-10T07:41:27;5.40;99.90
16289;DHT22;26089;43.538;5.250;2022-12-10T07:43:57;6.00;99.90
16289;DHT22;26089;43.538;5.250;2022-12-10T07:46:26;5.60;99.90
16289;DHT22;26089;43.538;5.250;2022-12-10T07:48:53;5.50;99.90
16289;DHT22;26089;43.538;5.250;2022-12-10T07:51:21;5.60;99.90
16289;DHT22;26089;43.538;5.250;2022-12-10T07:53:50;5.40;99.90
16289;DHT22;26089;43.538;5.250;2022-12-10T07:56:17;5.70;99.90
16289;DHT22;26089;43.538;5.250;2022-12-10T07:58:45;5.80;99.90
16289;DHT22;26089;43.538;5.250;2022-12-10T08:01:15;5.80;99.90
16289;DHT22;26089;43.538;5.250;2022-12-10T08:03:42;5.70;99.90
16289;DHT22;26089;43.538;5.250;2022-12-10T08:06:11;5.70;99.90
16289;DHT22;26089;43.538;5.250;2022-12-10T08:08:39;5.30;99.90
16289;DHT22;26089;43.538;5.250;2022-12-10T08:11:07;5.40;99.90
16289;DHT22;26089;43.538;5.250;2022-12-10T08:13:35;6.50;99.90
16289;DHT22;26089;43.538;5.250;2022-12-10T08:16:02;6.10;99.90
16289;DHT22;26089;43.538;5.250;2022-12-10T08:18:31;5.70;99.90
16289;DHT22;26089;43.538;5.250;2022-12-10T08:21:02;5.70;99.90
16289;DHT22;26089;43.538;5.250;2022-12-10T08:23:30;5.70;99.90
16289;DHT22;26089;43.538;5.250;2022-12-10T08:25:57;5.80;99.90
16289;DHT22;26089;43.538;5.250;2022-12-10T08:28:24;5.80;99.90
16289;DHT22;26089;43.538;5.250;2022-12-10T08:30:51;5.80;99.90
16289;DHT22;26089;43.538;5.250;2022-12-10T08:33:18;5.40;99.90
16289;DHT22;26089;43.538;5.250;2022-12-10T08:35:46;6.00;99.90
16289;DHT22;26089;43.538;5.250;2022-12-10T08:38:13;6.00;99.90
16289;DHT22;26089;43.538;5.250;2022-12-10T08:40:41;6.00;99.90
16289;DHT22;26089;43.538;5.250;2022-12-10T08:43:08;6.00;99.90
16289;DHT22;26089;43.538;5.250;2022-12-10T08:45:35;6.10;99.90
16289;DHT22;26089;43.538;5.250;2022-12-10T08:48:02;6.00;99.90
16289;DHT22;26089;43.538;5.250;2022-12-10T08:50:29;5.90;99.90
16289;DHT22;26089;43.538;5.250;2022-12-10T08:52:58;5.90;99.90
16289;DHT22;26089;43.538;5.250;2022-12-10T08:55:26;6.00;99.90
16289;DHT22;26089;43.538;5.250;2022-12-10T08:57:53;6.40;99.90
16289;DHT22;26089;43.538;5.250;2022-12-10T09:00:20;6.10;99.90
16289;DHT22;26089;43.538;5.250;2022-12-10T09:02:47;6.10;99.90
16289;DHT22;26089;43.538;5.250;2022-12-10T09:05:14;6.20;99.90
16289;DHT22;26089;43.538;5.250;2022-12-10T09:07:41;6.20;99.90
16289;DHT22;26089;43.538;5.250;2022-12-10T09:10:11;6.20;99.90
16289;DHT22;26089;43.538;5.250;2022-12-10T09:12:38;6.20;99.90
16289;DHT22;26089;43.538;5.250;2022-12-10T09:15:08;6.20;99.90
16289;DHT22;26089;43.538;5.250;2022-12-10T09:17:35;6.20;99.90
16289;DHT22;26089;43.538;5.250;2022-12-10T09:20:04;6.20;99.90
16289;DHT22;26089;43.538;5.250;2022-12-10T09:22:32;6.20;99.90
16289;DHT22;26089;43.538;5.250;2022-12-10T09:25:03;6.30;99.90
16289;DHT22;26089;43.538;5.250;2022-12-10T09:27:32;6.70;99.90
16289;DHT22;26089;43.538;5.250;2022-12-10T09:29:59;6.50;99.90
16289;DHT22;26089;43.538;5.250;2022-12-10T09:32:26;6.50;99.90
16289;DHT22;26089;43.538;5.250;2022-12-10T09:34:53;6.40;99.90
16289;DHT22;26089;43.538;5.250;2022-12-10T09:37:20;6.90;99.90
16289;DHT22;26089;43.538;5.250;2022-12-10T09:39:47;6.60;99.90
16289;DHT22;26089;43.538;5.250;2022-12-10T09:42:26;6.60;99.90
16289;DHT22;26089;43.538;5.250;2022-12-10T09:44:59;6.70;99.90
16289;DHT22;26089;43.538;5.250;2022-12-10T09:47:33;6.70;99.90
16289;DHT22;26089;43.538;5.250;2022-12-10T09:50:09;6.70;99.90
16289;DHT22;26089;43.538;5.250;2022-12-10T09:52:42;6.70;99.90
16289;DHT22;26089;43.538;5.250;2022-12-10T09:55:14;6.80;99.90
16289;DHT22;26089;43.538;5.250;2022-12-10T09:57:43;7.30;99.90
16289;DHT22;26089;43.538;5.250;2022-12-10T10:00:25;6.90;99.90
16289;DHT22;26089;43.538;5.250;2022-12-10T10:02:56;7.60;99.90
16289;DHT22;26089;43.538;5.250;2022-12-10T10:05:26;6.80;99.90
16289;DHT22;26089;43.538;5.250;2022-12-10T10:07:56;6.90;99.90
16289;DHT22;26089;43.538;5.250;2022-12-10T10:10:26;7.00;99.90
16289;DHT22;26089;43.538;5.250;2022-12-10T10:12:55;7.10;99.90
16289;DHT22;26089;43.538;5.250;2022-12-10T10:15:30;7.10;99.90
16289;DHT22;26089;43.538;5.250;2022-12-10T10:18:01;6.80;99.90
16289;DHT22;26089;43.538;5.250;2022-12-10T10:20:29;7.20;99.90
16289;DHT22;26089;43.538;5.250;2022-12-10T10:22:58;7.30;99.90
16289;DHT22;26089;43.538;5.250;2022-12-10T10:25:26;6.60;99.90
16289;DHT22;26089;43.538;5.250;2022-12-10T10:27:54;7.20;99.90
16289;DHT22;26089;43.538;5.250;2022-12-10T10:30:22;7.10;99.90
16289;DHT22;26089;43.538;5.250;2022-12-10T10:32:52;7.50;99.90
16289;DHT22;26089;43.538;5.250;2022-12-10T10:35:26;7.30;99.90
16289;DHT22;26089;43.538;5.250;2022-12-10T10:37:58;7.00;99.90
16289;DHT22;26089;43.538;5.250;2022-12-10T10:40:28;7.10;99.90
16289;DHT22;26089;43.538;5.250;2022-12-10T10:42:57;7.00;99.90
16289;DHT22;26089;43.538;5.250;2022-12-10T10:45:34;7.00;99.90
16289;DHT22;26089;43.538;5.250;2022-12-10T10:48:11;7.10;99.90
16289;DHT22;26089;43.538;5.250;2022-12-10T10:50:41;7.10;99.90
16289;DHT22;26089;43.538;5.250;2022-12-10T10:53:32;6.90;99.90
16289;DHT22;26089;43.538;5.250;2022-12-10T10:56:05;7.20;99.90
16289;DHT22;26089;43.538;5.250;2022-12-10T10:58:34;7.30;99.90
16289;DHT22;26089;43.538;5.250;2022-12-10T11:01:04;6.90;99.90
16289;DHT22;26089;43.538;5.250;2022-12-10T11:03:35;7.20;99.90
16289;DHT22;26089;43.538;5.250;2022-12-10T11:06:06;7.20;99.90
16289;DHT22;26089;43.538;5.250;2022-12-10T11:08:35;7.30;99.90
16289;DHT22;26089;43.538;5.250;2022-12-10T11:11:05;7.40;99.90
16289;DHT22;26089;43.538;5.250;2022-12-10T11:13:34;7.50;99.90
16289;DHT22;26089;43.538;5.250;2022-12-10T11:16:11;7.60;99.90
16289;DHT22;26089;43.538;5.250;2022-12-10T11:18:41;7.60;99.90
16289;DHT22;26089;43.538;5.250;2022-12-10T11:21:17;7.70;99.90
16289;DHT22;26089;43.538;5.250;2022-12-10T11:23:48;7.60;99.90
16289;DHT22;26089;43.538;5.250;2022-12-10T11:26:43;7.60;99.90
16289;DHT22;26089;43.538;5.250;2022-12-10T11:29:28;7.90;99.90
16289;DHT22;26089;43.538;5.250;2022-12-10T11:32:10;8.50;99.90
16289;DHT22;26089;43.538;5.250;2022-12-10T11:34:50;9.10;99.90
16289;DHT22;26089;43.538;5.250;2022-12-10T11:37:24;9.80;99.90
16289;DHT22;26089;43.538;5.250;2022-12-10T11:40:06;9.20;99.90
16289;DHT22;26089;43.538;5.250;2022-12-10T11:42:51;9.30;99.90
16289;DHT22;26089;43.538;5.250;2022-12-10T11:45:24;9.00;99.90
16289;DHT22;26089;43.538;5.250;2022-12-10T11:48:07;9.10;99.90
16289;DHT22;26089;43.538;5.250;2022-12-10T11:50:44;9.20;99.90
16289;DHT22;26089;43.538;5.250;2022-12-10T11:53:50;9.40;99.90
16289;DHT22;26089;43.538;5.250;2022-12-10T11:56:24;9.50;99.90
16289;DHT22;26089;43.538;5.250;2022-12-10T11:59:06;9.70;99.90
16289;DHT22;26089;43.538;5.250;2022-12-10T12:01:54;10.10;99.90
16289;DHT22;26089;43.538;5.250;2022-12-10T12:04:28;9.50;99.90
16289;DHT22;26089;43.538;5.250;2022-12-10T12:07:29;9.50;99.90
16289;DHT22;26089;43.538;5.250;2022-12-10T12:10:19;9.80;99.90
16289;DHT22;26089;43.538;5.250;2022-12-10T12:12:54;9.50;99.90
16289;DHT22;26089;43.538;5.250;2022-12-10T12:15:29;9.30;99.90
16289;DHT22;26089;43.538;5.250;2022-12-10T12:18:01;9.30;99.90
16289;DHT22;26089;43.538;5.250;2022-12-10T12:20:32;9.30;99.90
16289;DHT22;26089;43.538;5.250;2022-12-10T12:23:09;9.80;99.90
16289;DHT22;26089;43.538;5.250;2022-12-10T12:25:41;10.00;99.90
16289;DHT22;26089;43.538;5.250;2022-12-10T12:28:13;10.00;99.90
16289;DHT22;26089;43.538;5.250;2022-12-10T12:30:43;9.70;99.90
16289;DHT22;26089;43.538;5.250;2022-12-10T12:33:18;10.20;99.90
16289;DHT22;26089;43.538;5.250;2022-12-10T12:35:49;10.70;99.90
16289;DHT22;26089;43.538;5.250;2022-12-10T12:38:30;10.40;99.90
16289;DHT22;26089;43.538;5.250;2022-12-10T12:41:02;10.60;99.90
16289;DHT22;26089;43.538;5.250;2022-12-10T12:43:39;10.90;99.90
16289;DHT22;26089;43.538;5.250;2022-12-10T12:46:12;11.00;99.90
16289;DHT22;26089;43.538;5.250;2022-12-10T12:48:46;10.70;99.90
16289;DHT22;26089;43.538;5.250;2022-12-10T12:51:21;10.40;99.90
16289;DHT22;26089;43.538;5.250;2022-12-10T12:53:51;10.60;99.90
16289;DHT22;26089;43.538;5.250;2022-12-10T12:56:24;10.20;99.90
16289;DHT22;26089;43.538;5.250;2022-12-10T12:59:04;10.20;99.90
16289;DHT22;26089;43.538;5.250;2022-12-10T13:01:39;10.50;99.90
16289;DHT22;26089;43.538;5.250;2022-12-10T13:04:07;10.90;99.90
16289;DHT22;26089;43.538;5.250;2022-12-10T13:06:36;10.90;99.90
16289;DHT22;26089;43.538;5.250;2022-12-10T13:09:25;10.70;99.90
16289;DHT22;26089;43.538;5.250;2022-12-10T13:12:16;11.00;99.90
16289;DHT22;26089;43.538;5.250;2022-12-10T13:14:56;11.10;99.90
16289;DHT22;26089;43.538;5.250;2022-12-10T13:17:31;11.00;99.90
16289;DHT22;26089;43.538;5.250;2022-12-10T13:23:01;9.90;99.90
16289;DHT22;26089;43.538;5.250;2022-12-10T13:25:42;10.40;99.90
16289;DHT22;26089;43.538;5.250;2022-12-10T13:28:27;10.70;99.90
16289;DHT22;26089;43.538;5.250;2022-12-10T13:34:23;9.30;99.90
16289;DHT22;26089;43.538;5.250;2022-12-10T13:37:06;10.00;99.90
16289;DHT22;26089;43.538;5.250;2022-12-10T13:39:46;10.10;99.90
16289;DHT22;26089;43.538;5.250;2022-12-10T13:42:36;9.90;99.90
16289;DHT22;26089;43.538;5.250;2022-12-10T13:45:30;9.70;99.90
16289;DHT22;26089;43.538;5.250;2022-12-10T13:48:30;9.40;99.90
16289;DHT22;26089;43.538;5.250;2022-12-10T13:51:16;9.10;99.90
16289;DHT22;26089;43.538;5.250;2022-12-10T13:54:00;9.00;99.90
16289;DHT22;26089;43.538;5.250;2022-12-10T13:56:38;8.70;99.90
16289;DHT22;26089;43.538;5.250;2022-12-10T13:59:19;8.80;99.90
16289;DHT22;26089;43.538;5.250;2022-12-10T14:01:58;8.40;99.90
16289;DHT22;26089;43.538;5.250;2022-12-10T14:04:42;8.60;99.90
16289;DHT22;26089;43.538;5.250;2022-12-10T14:07:12;8.60;99.90
16289;DHT22;26089;43.538;5.250;2022-12-10T14:09:45;8.30;99.90
16289;DHT22;26089;43.538;5.250;2022-12-10T14:12:16;7.90;99.90
16289;DHT22;26089;43.538;5.250;2022-12-10T14:14:47;7.80;99.90
16289;DHT22;26089;43.538;5.250;2022-12-10T14:17:19;7.90;99.90
16289;DHT22;26089;43.538;5.250;2022-12-10T14:19:49;7.70;99.90
16289;DHT22;26089;43.538;5.250;2022-12-10T14:22:21;7.90;99.90
16289;DHT22;26089;43.538;5.250;2022-12-10T14:24:50;7.80;99.90
16289;DHT22;26089;43.538;5.250;2022-12-10T14:27:20;7.60;99.90
16289;DHT22;26089;43.538;5.250;2022-12-10T14:29:57;7.40;99.90
16289;DHT22;26089;43.538;5.250;2022-12-10T14:32:29;7.10;99.90
16289;DHT22;26089;43.538;5.250;2022-12-10T14:34:57;6.90;99.90
16289;DHT22;26089;43.538;5.250;2022-12-10T14:37:26;6.70;99.90
16289;DHT22;26089;43.538;5.250;2022-12-10T14:39:54;6.60;99.90
16289;DHT22;26089;43.538;5.250;2022-12-10T14:42:22;6.60;99.90
16289;DHT22;26089;43.538;5.250;2022-12-10T14:44:56;6.50;99.90
16289;DHT22;26089;43.538;5.250;2022-12-10T14:47:24;6.20;99.90
16289;DHT22;26089;43.538;5.250;2022-12-10T14:49:53;6.10;99.90
16289;DHT22;26089;43.538;5.250;2022-12-10T14:52:22;6.10;99.90
16289;DHT22;26089;43.538;5.250;2022-12-10T14:54:50;6.10;99.90
16289;DHT22;26089;43.538;5.250;2022-12-10T14:57:23;6.10;99.90
16289;DHT22;26089;43.538;5.250;2022-12-10T14:59:59;6.00;99.90
16289;DHT22;26089;43.538;5.250;2022-12-10T15:02:29;5.90;99.90
16289;DHT22;26089;43.538;5.250;2022-12-10T15:04:57;5.70;99.90
16289;DHT22;26089;43.538;5.250;2022-12-10T15:07:26;5.50;99.90
16289;DHT22;26089;43.538;5.250;2022-12-10T15:09:58;5.50;99.90
16289;DHT22;26089;43.538;5.250;2022-12-10T15:12:31;5.40;99.90
16289;DHT22;26089;43.538;5.250;2022-12-10T15:15:11;5.20;99.90
16289;DHT22;26089;43.538;5.250;2022-12-10T15:17:41;5.10;99.90
16289;DHT22;26089;43.538;5.250;2022-12-10T15:20:20;5.10;99.90
16289;DHT22;26089;43.538;5.250;2022-12-10T15:22:47;5.00;99.90
16289;DHT22;26089;43.538;5.250;2022-12-10T15:25:23;4.90;99.90
16289;DHT22;26089;43.538;5.250;2022-12-10T15:28:00;4.80;99.90
16289;DHT22;26089;43.538;5.250;2022-12-10T15:30:37;4.80;99.90
16289;DHT22;26089;43.538;5.250;2022-12-10T15:33:22;4.60;99.90
16289;DHT22;26089;43.538;5.250;2022-12-10T15:35:54;4.60;99.90
16289;DHT22;26089;43.538;5.250;2022-12-10T15:38:22;4.50;99.90
16289;DHT22;26089;43.538;5.250;2022-12-10T15:40:49;4.50;99.90
16289;DHT22;26089;43.538;5.250;2022-12-10T15:43:25;4.30;99.90
16289;DHT22;26089;43.538;5.250;2022-12-10T15:45:54;4.30;99.90
16289;DHT22;26089;43.538;5.250;2022-12-10T15:48:21;4.20;99.90
16289;DHT22;26089;43.538;5.250;2022-12-10T15:50:50;3.40;99.90
16289;DHT22;26089;43.538;5.250;2022-12-10T15:53:24;4.10;99.90
16289;DHT22;26089;43.538;5.250;2022-12-10T15:55:52;3.90;99.90
16289;DHT22;26089;43.538;5.250;2022-12-10T15:58:20;3.90;99.90
16289;DHT22;26089;43.538;5.250;2022-12-10T16:00:47;3.80;99.90
16289;DHT22;26089;43.538;5.250;2022-12-10T16:03:16;5.00;99.90
16289;DHT22;26089;43.538;5.250;2022-12-10T16:05:44;3.70;99.90
16289;DHT22;26089;43.538;5.250;2022-12-10T16:08:18;3.70;99.90
16289;DHT22;26089;43.538;5.250;2022-12-10T16:10:47;3.50;99.90
16289;DHT22;26089;43.538;5.250;2022-12-10T16:13:18;3.40;99.90
16289;DHT22;26089;43.538;5.250;2022-12-10T16:15:48;3.40;99.90
16289;DHT22;26089;43.538;5.250;2022-12-10T16:18:18;3.40;99.90